TAF KRFD
AMD KRFD 082109Z 0821/0918 35009KT P6SM FEW035 FM090000 12006KT P6SM SCT250 FM090800 15009KT P6SM BKN100 FM091300 15012G22KT P6SM BKN070 PROB30 0913/0916 -SNPL=
METAR KRFD
WC KRFD
WS KRFD
WV KRFD